UPSVAC Airport Information Service

Salvador-Deputado Luís Eduardo

ICAO: SBSV Country: Salvador, Bahia
Latitude: -12.9086 Longitude: -38.3225
Latest Arrival : UPS5041(A) (SEQM-SBSV) Latest Departure : UPS5042(A) (SBSV-SBGR)


WX CaptureLIVE
Data provided by noaa.gov | Fetched at 14:00:19

METAR : SBSV 251400Z 09011KT 9999 SCT020 30/22 Q1014

TAF : SBSV 250930Z 2512/2612 10010KT 9999 SCT020TX30/2515Z TN26/2606Z TEMPO 2512/2515 RA BECMG 2602/2604 10008KT RMK PGM


Runway Data for SBSV
Data provided by openaviationdata.com

Runway ID Mag Var Hdg Length Elevation Surface ILS Freq ILS Id ILS Slope
10 -23 101° 9869 ft 64 ft Asphalt 109.3 ISV 2
17 -23 166° 5021 ft 64 ft Asphalt -- -- --
28 -23 281° 9869 ft 64 ft Asphalt -- -- --
35 -23 346° 5021 ft 64 ft Asphalt -- -- --

Salvador-Deputado Luís Eduardo, Salvador, Bahia
Use only for reference purposes



Not for navigational purposes.